createdAt,value
2018-01-27T00:00:32.253Z,36.30
2018-01-27T00:05:15.606Z,40.00
2018-01-27T00:09:58.952Z,37.23
2018-01-27T00:14:43.160Z,32.57
2018-01-27T00:19:26.550Z,34.73
2018-01-27T00:24:09.895Z,41.90
2018-01-27T00:28:53.252Z,37.50
2018-01-27T00:33:37.380Z,38.10
2018-01-27T00:38:20.975Z,33.57
2018-01-27T00:43:04.389Z,28.67
2018-01-27T00:47:47.772Z,25.67
2018-01-27T00:52:31.134Z,18.57
2018-01-27T00:57:14.758Z,14.60
2018-01-27T01:01:58.060Z,12.63
2018-01-27T01:06:41.457Z,11.27
2018-01-27T01:11:24.809Z,10.73
2018-01-27T01:16:08.210Z,10.07
2018-01-27T01:20:51.559Z,8.20
2018-01-27T01:25:34.954Z,9.27
2018-01-27T01:30:18.268Z,9.83
2018-01-27T01:35:01.884Z,9.07
2018-01-27T01:39:45.917Z,7.40
2018-01-27T01:44:30.012Z,10.50
2018-01-27T01:49:23.314Z,8.40
2018-01-27T01:54:06.655Z,8.27
2018-01-27T01:58:49.985Z,7.53
2018-01-27T02:03:33.313Z,8.90
2018-01-27T02:08:16.971Z,7.80
2018-01-27T02:13:00.314Z,7.57
2018-01-27T02:17:43.651Z,7.43
2018-01-27T02:22:26.991Z,9.50
2018-01-27T02:27:10.314Z,7.53
2018-01-27T02:31:53.696Z,12.17
2018-01-27T02:36:37.036Z,22.50
2018-01-27T02:41:20.335Z,31.10
2018-01-27T02:46:03.702Z,37.17
2018-01-27T02:50:47.050Z,30.57
2018-01-27T02:55:31.160Z,43.77
2018-01-27T03:00:14.746Z,52.57
2018-01-27T03:04:58.040Z,27.63
2018-01-27T03:09:41.369Z,21.60
2018-01-27T03:14:25.482Z,18.43
2018-01-27T03:19:08.817Z,24.83
2018-01-27T03:23:52.121Z,16.47
2018-01-27T03:28:35.474Z,17.57
2018-01-27T03:33:18.779Z,15.83
2018-01-27T03:38:02.861Z,22.83
2018-01-27T03:42:46.218Z,29.67
2018-01-27T03:47:29.521Z,18.50
2018-01-27T03:52:13.872Z,18.80
2018-01-27T03:56:57.178Z,13.83
2018-01-27T04:01:40.530Z,14.83
2018-01-27T04:06:23.844Z,19.23
2018-01-27T04:11:07.165Z,21.43
2018-01-27T04:15:50.497Z,26.13
2018-01-27T04:20:33.862Z,24.17
2018-01-27T04:25:17.177Z,31.37
2018-01-27T04:30:00.496Z,24.50
2018-01-27T04:34:44.571Z,27.80
2018-01-27T04:39:27.904Z,25.73
2018-01-27T04:44:11.963Z,23.23
2018-01-27T04:48:56.048Z,23.27
2018-01-27T04:53:39.376Z,24.40
2018-01-27T04:58:22.682Z,23.47
2018-01-27T05:03:06.037Z,20.30
2018-01-27T05:07:49.366Z,23.27
2018-01-27T05:12:33.713Z,19.67
2018-01-27T05:17:16.993Z,22.30
2018-01-27T05:22:00.334Z,18.60
2018-01-27T05:26:43.683Z,20.93
2018-01-27T05:31:26.991Z,20.10
2018-01-27T05:36:11.074Z,20.37
2018-01-27T05:40:54.372Z,25.47
2018-01-27T05:45:37.718Z,24.97
2018-01-27T05:50:21.050Z,28.20
2018-01-27T05:55:04.448Z,33.93
2018-01-27T05:59:47.778Z,24.43
2018-01-27T06:04:31.101Z,26.57
2018-01-27T06:09:15.178Z,24.73
2018-01-27T06:13:58.578Z,23.87
2018-01-27T06:18:41.924Z,22.20
2018-01-27T06:23:25.249Z,24.60
2018-01-27T06:28:08.594Z,21.50
2018-01-27T06:32:51.899Z,23.73
2018-01-27T06:37:35.212Z,25.97
2018-01-27T06:42:19.294Z,21.67
2018-01-27T06:47:02.620Z,22.03
2018-01-27T06:51:45.940Z,23.50
2018-01-27T06:56:29.267Z,29.07
2018-01-27T07:01:13.333Z,24.00
2018-01-27T07:05:57.405Z,24.00
2018-01-27T07:10:40.743Z,22.50
2018-01-27T07:15:24.048Z,21.63
2018-01-27T07:20:07.397Z,22.30
2018-01-27T07:24:50.727Z,20.80
2018-01-27T07:29:34.310Z,20.73
2018-01-27T07:34:17.599Z,24.07
2018-01-27T07:39:00.983Z,27.23
2018-01-27T07:43:44.587Z,29.17
2018-01-27T07:48:27.908Z,31.20
2018-01-27T07:53:11.267Z,29.20
2018-01-27T07:57:54.918Z,28.43
2018-01-27T08:02:38.208Z,30.97
2018-01-27T08:07:21.557Z,30.13
2018-01-27T08:12:04.923Z,29.77
2018-01-27T08:16:48.241Z,28.83
2018-01-27T08:21:31.605Z,31.63
2018-01-27T08:26:14.910Z,30.77
2018-01-27T08:30:58.233Z,31.60
2018-01-27T08:35:42.326Z,29.33
2018-01-27T08:40:26.567Z,30.83
2018-01-27T08:45:09.916Z,30.23
2018-01-27T08:49:53.260Z,30.83
2018-01-27T08:54:36.582Z,31.27
2018-01-27T08:59:19.938Z,32.33
2018-01-27T09:04:03.238Z,31.53
2018-01-27T09:08:46.558Z,29.33
2018-01-27T09:13:29.889Z,29.97
2018-01-27T09:18:13.552Z,31.13
2018-01-27T09:22:56.965Z,27.00
2018-01-27T09:27:43.827Z,30.37
2018-01-27T09:32:30.173Z,27.53
2018-01-27T09:37:15.031Z,25.43
2018-01-27T09:41:58.882Z,25.50
2018-01-27T09:46:42.399Z,27.43
2018-01-27T09:51:44.438Z,25.17
2018-01-27T09:56:28.075Z,27.50
2018-01-27T10:01:12.964Z,27.90
2018-01-27T10:05:57.263Z,34.33
2018-01-27T10:10:41.856Z,36.57
2018-01-27T10:15:26.267Z,31.60
2018-01-27T10:20:12.065Z,32.57
2018-01-27T10:24:57.852Z,30.63
2018-01-27T10:29:43.392Z,33.23
2018-01-27T10:34:28.775Z,25.57
2018-01-27T10:39:12.443Z,29.33
2018-01-27T10:43:57.979Z,30.73
2018-01-27T10:48:42.120Z,29.73
2018-01-27T10:53:26.834Z,28.77
2018-01-27T10:58:10.552Z,27.63
2018-01-27T11:02:53.915Z,30.50
2018-01-27T11:07:37.438Z,31.13
2018-01-27T11:12:21.015Z,30.00
2018-01-27T11:17:04.312Z,29.43
2018-01-27T11:21:47.652Z,30.93
2018-01-27T11:26:31.010Z,30.00
2018-01-27T11:31:15.384Z,26.13
2018-01-27T11:35:58.719Z,31.80
2018-01-27T11:40:42.075Z,30.50
2018-01-27T11:45:25.393Z,29.53
2018-01-27T11:50:08.860Z,32.20
2018-01-27T11:54:52.199Z,30.50
2018-01-27T11:59:35.553Z,28.00
2018-01-27T12:04:18.894Z,25.93
2018-01-27T12:09:03.737Z,22.27
2018-01-27T12:13:47.092Z,25.03
2018-01-27T12:18:30.415Z,24.37
2018-01-27T12:23:13.796Z,25.50
2018-01-27T12:27:57.140Z,23.00
2018-01-27T12:32:40.465Z,25.50
2018-01-27T12:37:23.810Z,27.00
2018-01-27T12:42:07.230Z,23.90
2018-01-27T12:46:51.500Z,29.63
2018-01-27T12:51:34.879Z,26.57
2018-01-27T12:56:19.038Z,27.10
2018-01-27T13:01:02.370Z,26.87
2018-01-27T13:05:46.085Z,24.77
2018-01-27T13:10:29.414Z,28.67
2018-01-27T13:15:12.760Z,26.50
2018-01-27T13:19:56.211Z,28.07
2018-01-27T13:24:39.539Z,28.30
2018-01-27T13:29:23.008Z,26.90
2018-01-27T13:34:06.448Z,22.73
2018-01-27T13:38:49.758Z,26.90
2018-01-27T13:43:33.047Z,24.10
2018-01-27T13:48:16.375Z,21.80
2018-01-27T13:53:00.518Z,22.67
2018-01-27T13:57:43.826Z,23.87
2018-01-27T14:02:27.189Z,28.57
2018-01-27T14:07:10.520Z,29.90
2018-01-27T14:11:53.851Z,29.67
2018-01-27T14:16:37.163Z,30.93
2018-01-27T14:21:21.284Z,48.33
2018-01-27T14:26:04.828Z,37.47
2018-01-27T14:30:48.161Z,36.23
2018-01-27T14:35:31.454Z,28.27
2018-01-27T14:40:14.849Z,30.37
2018-01-27T14:44:58.139Z,22.80
2018-01-27T14:49:42.215Z,27.93
2018-01-27T14:54:25.589Z,30.97
2018-01-27T14:59:08.886Z,30.83
2018-01-27T15:03:52.199Z,31.93
2018-01-27T15:08:35.611Z,32.20
2018-01-27T15:13:18.997Z,29.97
2018-01-27T15:18:02.370Z,33.80
2018-01-27T15:22:45.670Z,37.13
2018-01-27T15:27:29.014Z,37.70
2018-01-27T15:32:12.356Z,32.00
2018-01-27T15:36:56.507Z,34.93
2018-01-27T15:41:40.586Z,37.17
2018-01-27T15:46:23.904Z,39.73
2018-01-27T15:51:07.223Z,41.60
2018-01-27T15:55:50.642Z,41.60
2018-01-27T16:00:34.017Z,40.17
2018-01-27T16:05:17.358Z,34.83
2018-01-27T16:10:00.734Z,35.97
2018-01-27T16:14:44.038Z,29.53
2018-01-27T16:19:27.368Z,37.23
2018-01-27T16:24:10.736Z,38.27
2018-01-27T16:28:54.099Z,39.67
2018-01-27T16:33:37.438Z,44.63
2018-01-27T16:38:20.719Z,57.33
2018-01-27T16:43:04.856Z,59.57
2018-01-27T16:47:49.884Z,53.17
2018-01-27T16:52:33.202Z,62.00
2018-01-27T16:57:16.513Z,60.57
2018-01-27T17:02:00.106Z,61.43
2018-01-27T17:06:44.203Z,57.17
2018-01-27T17:11:27.606Z,56.50
2018-01-27T17:16:10.954Z,54.23
2018-01-27T17:20:55.046Z,61.17
2018-01-27T17:25:38.393Z,61.43
2018-01-27T17:30:21.741Z,52.60
2018-01-27T17:35:05.105Z,46.07
2018-01-27T17:39:48.559Z,80.93
2018-01-27T17:44:31.897Z,46.10
2018-01-27T17:49:15.241Z,42.13
2018-01-27T17:53:58.608Z,35.83
2018-01-27T17:58:42.694Z,37.40
2018-01-27T18:03:26.033Z,36.03
2018-01-27T18:08:09.469Z,34.77
2018-01-27T18:12:52.845Z,32.47
2018-01-27T18:17:36.488Z,32.87
2018-01-27T18:22:20.338Z,31.17
2018-01-27T18:27:04.874Z,28.63
2018-01-27T18:31:48.264Z,29.43
2018-01-27T18:36:31.627Z,27.27
2018-01-27T18:41:15.006Z,29.93
2018-01-27T18:45:58.347Z,27.70
2018-01-27T18:50:42.976Z,37.80
2018-01-27T18:55:26.476Z,26.00
2018-01-27T19:00:09.849Z,25.33
2018-01-27T19:04:53.669Z,23.87
2018-01-27T19:09:37.942Z,23.10
2018-01-27T19:14:22.071Z,23.23
2018-01-27T19:19:05.578Z,23.30
2018-01-27T19:23:49.162Z,20.53
2018-01-27T19:28:32.735Z,21.93
2018-01-27T19:33:17.929Z,19.33
2018-01-27T19:38:01.464Z,18.20
2018-01-27T19:42:44.806Z,18.17
2018-01-27T19:47:28.128Z,17.50
2018-01-27T19:52:12.270Z,16.93
2018-01-27T19:56:55.618Z,18.63
2018-01-27T20:01:38.954Z,16.20
2018-01-27T20:06:22.331Z,15.97
2018-01-27T20:11:05.641Z,16.63
2018-01-27T20:15:49.066Z,15.27
2018-01-27T20:20:32.474Z,12.80
2018-01-27T20:25:15.871Z,14.63
2018-01-27T20:29:59.221Z,13.97
2018-01-27T20:34:42.709Z,15.77
2018-01-27T20:39:26.072Z,18.00
2018-01-27T20:44:09.392Z,18.27
2018-01-27T20:48:53.500Z,15.27
2018-01-27T20:53:37.687Z,13.60
2018-01-27T20:58:21.049Z,13.60
2018-01-27T21:03:05.355Z,23.73
2018-01-27T21:07:48.951Z,23.13
2018-01-27T21:12:32.359Z,20.77
2018-01-27T21:17:15.791Z,17.57
2018-01-27T21:21:59.278Z,16.23
2018-01-27T21:26:42.601Z,14.80
2018-01-27T21:31:26.026Z,14.90
2018-01-27T21:36:09.381Z,13.67
2018-01-27T21:40:52.783Z,14.60
2018-01-27T21:45:36.124Z,14.17
2018-01-27T21:50:19.497Z,14.07
2018-01-27T21:55:02.801Z,14.20
2018-01-27T21:59:46.246Z,13.47
2018-01-27T22:04:30.035Z,14.03
2018-01-27T22:09:14.709Z,13.20
2018-01-27T22:13:58.138Z,13.67
2018-01-27T22:18:41.464Z,14.43
2018-01-27T22:23:24.774Z,14.17
2018-01-27T22:28:08.154Z,13.33
2018-01-27T22:32:52.092Z,13.33
2018-01-27T22:37:39.943Z,12.17
2018-01-27T22:42:24.260Z,12.27
2018-01-27T22:47:08.379Z,12.10
2018-01-27T22:51:51.750Z,11.17
2018-01-27T22:56:35.873Z,10.97
2018-01-27T23:01:21.112Z,11.20
2018-01-27T23:06:04.444Z,11.50
2018-01-27T23:10:48.637Z,10.33
2018-01-27T23:15:32.009Z,8.97
2018-01-27T23:20:16.256Z,8.10
2018-01-27T23:24:59.843Z,8.50
2018-01-27T23:29:43.166Z,8.53
2018-01-27T23:34:26.486Z,7.97
2018-01-27T23:39:10.968Z,7.97
2018-01-27T23:43:54.447Z,7.57
2018-01-27T23:48:38.556Z,6.47
2018-01-27T23:53:21.844Z,7.63
2018-01-27T23:58:05.302Z,6.23
